CNVO2: Blue River near Connerville, OK

                                SHEF ID:       CNVO2     Blue River near Connerville, OK
STATION TYPE:

PRECIP STAGE RIV-FLOW BAT-LOAD
in ft cfs volt
Ccp-Rev Ccp-Rev Ccp-Rev Ccp-Rev
(America/Chicago)
04/29 00:00 0.00 6.82 514 12.43
04/29 01:00 0.00 6.68 437 12.40
04/29 02:00 0.00 6.56 374 12.39
04/29 03:00 0.00 6.47 330 12.37
04/29 04:00 0.00 6.39 292 12.35
04/29 05:00 0.00 6.33 265 12.33
04/29 06:00 0.00 6.28 243 12.31
04/29 07:00 0.00 6.24 226 12.27
04/29 08:00 0.00 6.22 218 12.44
04/29 09:00 0.00 6.22 218 13.18
04/29 10:00 0.00 6.25 230 13.30
04/29 11:00 0.00 6.24 226 13.29
04/29 12:00 0.00 6.22 218 13.24
04/29 13:00 0.00 6.19 206 13.19
04/29 14:00 0.00 6.17 198 13.18
04/29 15:00 0.00 6.16 194 13.17
04/29 16:00 0.00 6.14 186 13.16
04/29 17:00 0.00 6.12 179 13.14
04/29 18:00 0.00 6.11 175 13.13
04/29 19:00 0.00 6.10 171 13.09
04/29 20:00 0.00 6.09 167 12.90
04/29 21:00 0.00 6.08 164 12.64
04/29 22:00 0.00 6.07 160 12.51
04/29 23:00 ---- ---- ---- ----
Data processed at Thu 30Apr2026 04:01 GMT

NOTICE: If you are parsing this page

Please convert to using our Data API. Starting early 2026 we will be migrating to: https://water.usace.army.mil with modern pages rendered in JavaScript. When this migration completes you will no longer be able to scrape this page! CWMSDataAPI (CDA)

Timeseries IDs (TSIDs)

TSIDs used from left to right in the data table
CONV.Precip-Inc.Total.1Hour.1Hour.Ccp-Rev
CONV.Stage.Inst.1Hour.0.Ccp-Rev
CONV.Flow.Inst.1Hour.0.Ccp-Rev
CONV.Volt-Battery Load.Inst.1Hour.0.Ccp-Rev

                            

All information presented herein is the property of the government of the United States of America and may be revised or deleted at any time without prior notice. Dissemination of this information without the expressed written consent of the Public Affairs Office, Tulsa District U.S. Army Corps of Engineers is strictly prohibited. These data are gathered electronically and, as presented, have NOT undergone any form of quality control. These data are NOT guaranteed to be valid or correct.